Terminal Aerodrome Forecast
Issued by NWS Wilmington, NC

Home | Current Version | Previous Version | Text Only | Print | Product List | Glossary On
Versions: 1 2 3 4 5 6 7 8 9 10 11 12 13 14 15 16 17 18 19 20
257
FTUS42 KILM 302336
TAFLBT
TAF
KLBT 302336Z 3100/3124 10008KT P6SM VCSH FEW020 SCT050 OVC070
      TEMPO 3100/3102 6SM -RA BKN025
     FM310200 08005KT P6SM VCSH SCT015 OVC025
     FM310700 05003KT 5SM BR SCT007 BKN025
     FM311400 04007KT P6SM VCSH BKN025 OVC050=

USA.gov is the U.S. government's official web portal to all federal, state and local government web resources and services.